Time;durP1;ratioP1;P1;durP2;ratioP2;P2;SDS_P1;SDS_P2;PMS_P1;PMS_P2;Temp;Humidity;BMP_temperature;BMP_pressure;BME280_temperature;BME280_humidity;BME280_pressure;Samples;Min_cycle;Max_cycle;Signal;HPM_P1;HPM_P2
2021/03/16 00:01:24;;;;;;;23.15;5.20;;;6.20;99.90;;;;;;4134996;28;20046;-73
2021/03/16 00:03:24;;;;;;;29.38;7.38;;;6.20;99.90;;;;;;4120922;28;20429;-72
2021/03/16 00:05:25;;;;;;;20.15;4.53;;;6.10;99.90;;;;;;4136452;28;20680;-73
2021/03/16 00:07:26;;;;;;;14.65;5.03;;;6.20;99.90;;;;;;4121267;28;20076;-73
2021/03/16 00:09:27;;;;;;;17.45;4.85;;;6.20;99.90;;;;;;4127992;28;20030;-74
2021/03/16 00:11:28;;;;;;;17.45;4.82;;;6.20;99.90;;;;;;4130696;28;20041;-73
2021/03/16 00:13:28;;;;;;;16.02;4.72;;;6.30;99.90;;;;;;4141648;28;20056;-74
2021/03/16 00:15:29;;;;;;;21.85;4.28;;;6.30;99.90;;;;;;4125768;28;20034;-73
2021/03/16 00:17:30;;;;;;;20.20;4.25;;;6.30;99.90;;;;;;4130026;28;20030;-72
2021/03/16 00:19:30;;;;;;;17.00;5.90;;;6.20;99.90;;;;;;4129617;28;20036;-73
2021/03/16 00:21:31;;;;;;;28.98;7.25;;;6.20;99.90;;;;;;4125909;28;20039;-73
2021/03/16 00:23:31;;;;;;;33.47;8.95;;;6.20;99.90;;;;;;4130136;28;20050;-73
2021/03/16 00:25:32;;;;;;;24.17;5.45;;;6.20;99.90;;;;;;4131279;28;20039;-73
2021/03/16 00:27:32;;;;;;;16.15;5.63;;;6.20;99.90;;;;;;4138280;28;20045;-73
2021/03/16 00:29:33;;;;;;;17.55;5.25;;;6.10;99.90;;;;;;4131478;28;20045;-73
2021/03/16 00:31:34;;;;;;;24.70;6.00;;;6.10;99.90;;;;;;4130973;28;20531;-74
2021/03/16 00:33:35;;;;;;;19.83;5.57;;;6.10;99.90;;;;;;4131299;28;20057;-73
2021/03/16 00:35:36;;;;;;;28.02;5.18;;;6.00;99.90;;;;;;4124872;28;20125;-73
2021/03/16 00:37:37;;;;;;;12.52;4.78;;;6.10;99.90;;;;;;4131053;28;20065;-73
2021/03/16 00:39:37;;;;;;;19.70;4.57;;;6.10;99.90;;;;;;4138806;28;20396;-73
2021/03/16 00:41:38;;;;;;;20.30;5.75;;;6.10;99.90;;;;;;4142311;28;20058;-73
2021/03/16 00:43:39;;;;;;;20.92;4.65;;;6.10;99.90;;;;;;4129454;28;20052;-73
2021/03/16 00:45:40;;;;;;;24.10;6.00;;;6.10;99.90;;;;;;4129177;28;20117;-73
2021/03/16 00:47:40;;;;;;;23.85;6.00;;;6.20;99.90;;;;;;4133205;28;20034;-73
2021/03/16 00:49:41;;;;;;;23.95;7.60;;;6.20;99.90;;;;;;4135493;28;20125;-73
2021/03/16 00:51:41;;;;;;;25.85;5.38;;;6.20;99.90;;;;;;4130581;28;20030;-73
2021/03/16 00:53:43;;;;;;;23.02;5.55;;;6.20;99.90;;;;;;4133488;28;20036;-72
2021/03/16 00:55:43;;;;;;;21.30;5.00;;;6.20;99.90;;;;;;4131003;28;20046;-73
2021/03/16 00:57:44;;;;;;;20.75;4.65;;;6.20;99.90;;;;;;4130220;28;20662;-73
2021/03/16 00:59:44;;;;;;;19.60;5.13;;;6.20;99.90;;;;;;4134838;28;20050;-73
2021/03/16 01:01:45;;;;;;;30.77;6.25;;;6.10;99.90;;;;;;4130541;28;20046;-73
2021/03/16 01:03:45;;;;;;;34.75;6.30;;;6.10;99.90;;;;;;4139905;28;20038;-73
2021/03/16 01:05:48;;;;;;;18.13;5.80;;;6.10;99.90;;;;;;4143430;28;20037;-73
2021/03/16 01:07:50;;;;;;;21.70;5.15;;;6.10;99.90;;;;;;4136881;28;20498;-73
2021/03/16 01:09:50;;;;;;;20.83;4.97;;;6.10;99.90;;;;;;4128584;28;20034;-73
2021/03/16 01:11:51;;;;;;;13.95;4.40;;;6.10;99.90;;;;;;4129503;28;20038;-74
2021/03/16 01:13:52;;;;;;;20.25;4.43;;;6.10;99.90;;;;;;4127810;28;20046;-73
2021/03/16 01:15:53;;;;;;;20.65;5.18;;;6.10;99.90;;;;;;4129851;28;20042;-73
2021/03/16 01:17:53;;;;;;;31.45;5.38;;;6.20;99.90;;;;;;4120838;28;20042;-73
2021/03/16 01:19:54;;;;;;;19.73;5.75;;;6.20;99.90;;;;;;4135068;28;20038;-73
2021/03/16 01:21:54;;;;;;;22.88;5.18;;;6.20;99.90;;;;;;4129492;28;20058;-75
2021/03/16 01:23:55;;;;;;;28.35;8.00;;;6.20;99.90;;;;;;4130236;28;20057;-73
2021/03/16 01:25:56;;;;;;;23.90;5.70;;;6.20;99.90;;;;;;4129336;28;20038;-74
2021/03/16 01:27:56;;;;;;;22.40;4.50;;;6.20;99.90;;;;;;4139374;28;20038;-74
2021/03/16 01:29:57;;;;;;;20.63;4.68;;;6.20;99.90;;;;;;4128550;28;20034;-74
2021/03/16 01:31:58;;;;;;;10.50;4.18;;;6.20;99.90;;;;;;4137649;28;20537;-74
2021/03/16 01:33:59;;;;;;;19.38;4.47;;;6.10;99.90;;;;;;4131760;28;20031;-73
2021/03/16 01:35:59;;;;;;;21.58;4.60;;;6.00;99.90;;;;;;4130346;28;20112;-73
2021/03/16 01:38:00;;;;;;;21.27;5.00;;;6.10;99.90;;;;;;4130314;28;20398;-74
2021/03/16 01:40:01;;;;;;;20.52;7.30;;;6.00;99.90;;;;;;4127916;28;20046;-73
2021/03/16 01:42:01;;;;;;;19.85;5.00;;;6.10;99.90;;;;;;4129365;28;20046;-73
2021/03/16 01:44:02;;;;;;;13.77;4.03;;;6.10;99.90;;;;;;4127533;28;20030;-73
2021/03/16 01:46:04;;;;;;;16.92;5.28;;;6.00;99.90;;;;;;4123045;28;20041;-73
2021/03/16 01:48:06;;;;;;;20.33;5.63;;;6.00;99.90;;;;;;4121893;28;20035;-73
2021/03/16 01:50:10;;;;;;;13.93;4.85;;;6.00;99.90;;;;;;4127737;28;20494;-73
2021/03/16 01:52:11;;;;;;;26.77;5.72;;;6.00;99.90;;;;;;4127513;28;20371;-73
2021/03/16 01:54:12;;;;;;;17.38;5.28;;;6.00;99.90;;;;;;4127686;28;20061;-72
2021/03/16 01:56:15;;;;;;;31.70;6.63;;;6.00;99.90;;;;;;4127336;28;20126;-73
2021/03/16 01:58:16;;;;;;;19.13;5.72;;;6.10;99.90;;;;;;4132181;28;20034;-73
2021/03/16 02:00:17;;;;;;;24.10;6.10;;;6.10;99.90;;;;;;4128043;28;20061;-73
2021/03/16 02:02:17;;;;;;;25.55;5.30;;;6.00;99.90;;;;;;4128694;28;20393;-74
2021/03/16 02:04:18;;;;;;;18.02;5.18;;;6.00;99.90;;;;;;4132086;28;20026;-73
2021/03/16 02:06:31;;;;;;;35.80;6.32;;;6.00;99.90;;;;;;4136850;28;20030;-73
2021/03/16 02:08:53;;;;;;;18.52;5.00;;;6.00;99.90;;;;;;4130403;28;20035;-72
2021/03/16 02:11:12;;;;;;;22.40;5.57;;;6.00;99.90;;;;;;4131470;28;20038;-72
2021/03/16 02:13:16;;;;;;;19.52;6.85;;;6.10;99.90;;;;;;4132612;28;20045;-72
2021/03/16 02:15:23;;;;;;;26.27;7.43;;;6.10;99.90;;;;;;4131445;28;20464;-72
2021/03/16 02:17:29;;;;;;;22.63;4.85;;;6.10;99.90;;;;;;4143066;28;20037;-73
2021/03/16 02:20:02;;;;;;;22.88;5.07;;;6.00;99.90;;;;;;4132861;28;20022;-73
2021/03/16 02:22:03;;;;;;;20.00;5.25;;;6.00;99.90;;;;;;4133543;28;20126;-74
2021/03/16 02:24:08;;;;;;;24.27;5.05;;;6.00;99.90;;;;;;4132945;28;20057;-74
2021/03/16 02:26:28;;;;;;;14.98;4.55;;;6.00;99.90;;;;;;4132766;28;20041;-73
2021/03/16 02:28:45;;;;;;;20.65;5.25;;;6.00;99.90;;;;;;4138325;28;20129;-74
2021/03/16 02:30:46;;;;;;;15.55;3.85;;;6.00;99.90;;;;;;4132629;28;20088;-74
2021/03/16 02:32:48;;;;;;;16.65;5.35;;;6.00;99.90;;;;;;4148289;28;20053;-73
2021/03/16 02:34:55;;;;;;;16.92;4.38;;;6.10;99.90;;;;;;4132677;28;20030;-73
2021/03/16 02:36:58;;;;;;;19.88;5.32;;;6.10;99.90;;;;;;4132594;28;20031;-73
2021/03/16 02:39:03;;;;;;;17.63;4.28;;;6.20;99.90;;;;;;4132646;28;20030;-73
2021/03/16 02:41:07;;;;;;;20.77;6.20;;;6.10;99.90;;;;;;4130948;28;20454;-73
2021/03/16 02:43:09;;;;;;;16.40;4.80;;;6.20;99.90;;;;;;4139161;28;20037;-73
2021/03/16 02:45:10;;;;;;;16.45;4.25;;;6.10;99.90;;;;;;4126651;28;20485;-73
2021/03/16 02:47:12;;;;;;;17.33;5.03;;;6.10;99.90;;;;;;4131399;28;20030;-73
2021/03/16 02:49:14;;;;;;;16.77;4.53;;;6.10;99.90;;;;;;4133269;28;20026;-72
2021/03/16 02:51:16;;;;;;;20.52;4.47;;;6.10;99.90;;;;;;4132681;28;20108;-73
2021/03/16 02:53:17;;;;;;;18.77;4.38;;;6.10;99.90;;;;;;4131030;28;20034;-73
2021/03/16 02:55:18;;;;;;;11.32;4.70;;;6.00;99.90;;;;;;4141402;28;20428;-72
2021/03/16 02:57:20;;;;;;;14.85;4.40;;;5.90;99.90;;;;;;4132602;28;20103;-73
2021/03/16 02:59:21;;;;;;;19.83;5.25;;;6.00;99.90;;;;;;4131155;28;20042;-73
2021/03/16 03:01:22;;;;;;;18.65;4.68;;;5.90;99.90;;;;;;4137781;28;20073;-72
2021/03/16 03:03:24;;;;;;;20.00;5.05;;;5.90;99.90;;;;;;4132428;28;20097;-74
2021/03/16 03:05:25;;;;;;;19.77;4.82;;;5.90;99.90;;;;;;4131936;28;20061;-73
2021/03/16 03:07:26;;;;;;;16.55;4.65;;;6.00;99.90;;;;;;4121860;28;20544;-73
2021/03/16 03:09:28;;;;;;;23.08;5.75;;;6.00;99.90;;;;;;4134058;28;20126;-73
2021/03/16 03:11:33;;;;;;;16.42;4.57;;;6.10;99.90;;;;;;4131556;28;20061;-72
2021/03/16 03:13:33;;;;;;;19.40;6.07;;;6.00;99.90;;;;;;4132236;28;20026;-73
2021/03/16 03:15:34;;;;;;;16.58;4.20;;;6.10;99.90;;;;;;4131999;28;20513;-72
2021/03/16 03:17:36;;;;;;;21.08;4.60;;;6.00;99.90;;;;;;4132913;28;20057;-73
2021/03/16 03:19:36;;;;;;;19.27;4.88;;;6.10;99.90;;;;;;4137248;28;20029;-73
2021/03/16 03:21:37;;;;;;;19.80;6.25;;;6.00;99.90;;;;;;4136656;28;20038;-73
2021/03/16 03:23:46;;;;;;;22.85;4.13;;;5.90;99.90;;;;;;4133020;28;20038;-73
2021/03/16 03:26:00;;;;;;;16.60;4.80;;;5.90;99.90;;;;;;4131903;28;20038;-73
2021/03/16 03:28:05;;;;;;;15.85;5.18;;;5.90;99.90;;;;;;4131250;28;20031;-73
2021/03/16 03:30:08;;;;;;;18.15;5.28;;;5.90;99.90;;;;;;4132027;28;20113;-73
2021/03/16 03:32:10;;;;;;;25.55;5.05;;;5.90;99.90;;;;;;4131688;28;20034;-73
2021/03/16 03:34:12;;;;;;;17.52;4.65;;;5.90;99.90;;;;;;4132835;28;20030;-73
2021/03/16 03:36:13;;;;;;;18.42;4.28;;;5.90;99.90;;;;;;4130752;28;20039;-74
2021/03/16 03:38:15;;;;;;;25.15;5.18;;;6.00;99.90;;;;;;4131557;28;20181;-74
2021/03/16 03:40:17;;;;;;;14.55;3.97;;;6.00;99.90;;;;;;4133417;28;20125;-74
2021/03/16 03:42:20;;;;;;;17.95;4.45;;;6.10;99.90;;;;;;4128316;28;20027;-73
2021/03/16 03:44:22;;;;;;;16.83;4.07;;;6.00;99.90;;;;;;4130813;28;20026;-73
2021/03/16 03:46:24;;;;;;;23.98;4.72;;;6.10;99.90;;;;;;4134911;28;20049;-73
2021/03/16 03:48:27;;;;;;;17.42;4.80;;;6.00;99.90;;;;;;4139218;28;20030;-73
2021/03/16 03:50:28;;;;;;;25.23;4.43;;;6.00;99.90;;;;;;4126046;28;20031;-73
2021/03/16 03:52:30;;;;;;;19.25;4.25;;;6.00;99.90;;;;;;4124557;28;20038;-73
2021/03/16 03:54:32;;;;;;;27.25;5.63;;;5.90;99.90;;;;;;4135815;28;20034;-73
2021/03/16 03:56:34;;;;;;;20.20;4.70;;;5.90;99.90;;;;;;4128919;28;20042;-73
2021/03/16 03:58:38;;;;;;;19.70;5.68;;;5.90;99.90;;;;;;4130825;28;20030;-74
2021/03/16 04:00:40;;;;;;;22.23;5.50;;;5.90;99.90;;;;;;4135556;28;20445;-73
2021/03/16 04:02:41;;;;;;;22.80;4.93;;;6.00;99.90;;;;;;4125666;28;20037;-73
2021/03/16 04:04:43;;;;;;;14.63;4.95;;;6.10;99.90;;;;;;4129933;28;20113;-73
2021/03/16 04:06:44;;;;;;;10.82;4.97;;;5.90;99.90;;;;;;4126987;28;20410;-73
2021/03/16 04:08:45;;;;;;;26.20;5.30;;;5.90;99.90;;;;;;4141763;28;20536;-73
2021/03/16 04:10:46;;;;;;;20.40;4.68;;;5.80;99.90;;;;;;4130081;28;20320;-73
2021/03/16 04:12:47;;;;;;;17.02;4.10;;;5.90;99.90;;;;;;4133732;28;20045;-73
2021/03/16 04:14:49;;;;;;;15.48;4.32;;;5.90;99.90;;;;;;4150293;28;20065;-73
2021/03/16 04:16:51;;;;;;;18.33;4.13;;;5.90;99.90;;;;;;4122357;28;20039;-72
2021/03/16 04:18:52;;;;;;;20.70;4.82;;;5.90;99.90;;;;;;4123725;28;20038;-72
2021/03/16 04:20:53;;;;;;;22.58;5.32;;;6.00;99.90;;;;;;4131604;28;20265;-73
2021/03/16 04:22:54;;;;;;;23.20;5.53;;;6.00;99.90;;;;;;4127491;28;20027;-73
2021/03/16 04:24:56;;;;;;;19.50;5.65;;;6.00;99.90;;;;;;4129794;28;20037;-73
2021/03/16 04:26:56;;;;;;;21.58;5.40;;;6.00;99.90;;;;;;4122345;28;20027;-73
2021/03/16 04:28:57;;;;;;;18.35;5.13;;;6.00;99.90;;;;;;4122106;28;20354;-73
2021/03/16 04:30:58;;;;;;;16.10;4.55;;;5.90;99.90;;;;;;4124037;28;20466;-73
2021/03/16 04:32:58;;;;;;;17.17;4.30;;;6.00;99.90;;;;;;4124592;28;20031;-73
2021/03/16 04:35:00;;;;;;;20.48;5.68;;;6.00;99.90;;;;;;4127891;28;20410;-73
2021/03/16 04:37:00;;;;;;;17.77;6.25;;;5.90;99.90;;;;;;4130063;28;20520;-73
2021/03/16 04:39:01;;;;;;;21.58;7.32;;;5.90;99.90;;;;;;4127594;28;20047;-73
2021/03/16 04:41:01;;;;;;;19.42;5.03;;;5.90;99.90;;;;;;4124959;28;20034;-73
2021/03/16 04:43:03;;;;;;;18.55;4.25;;;5.90;99.90;;;;;;4131728;28;20035;-72
2021/03/16 04:45:05;;;;;;;24.90;4.93;;;5.90;99.90;;;;;;4130666;28;20077;-73
2021/03/16 04:47:06;;;;;;;22.98;4.38;;;5.90;99.90;;;;;;4130955;28;20034;-73
2021/03/16 04:49:06;;;;;;;21.63;4.95;;;5.90;99.90;;;;;;4132003;28;20054;-73
2021/03/16 04:51:07;;;;;;;21.13;5.68;;;5.90;99.90;;;;;;4128963;28;20058;-73
2021/03/16 04:53:08;;;;;;;17.98;5.25;;;5.90;99.90;;;;;;4130786;28;20081;-72
2021/03/16 04:55:09;;;;;;;23.65;5.50;;;5.80;99.90;;;;;;4140132;28;20084;-72
2021/03/16 04:57:10;;;;;;;24.25;5.18;;;5.80;99.90;;;;;;4130759;28;20485;-73
2021/03/16 04:59:10;;;;;;;21.92;4.80;;;5.80;99.90;;;;;;4128618;28;20030;-73
2021/03/16 05:01:11;;;;;;;26.95;5.90;;;5.80;99.90;;;;;;4130821;28;20034;-73
2021/03/16 05:03:12;;;;;;;24.42;4.63;;;5.80;99.90;;;;;;4129635;28;20089;-73
2021/03/16 05:05:13;;;;;;;24.05;6.20;;;5.80;99.90;;;;;;4129085;28;20081;-72
2021/03/16 05:07:14;;;;;;;24.60;5.70;;;5.80;99.90;;;;;;4130204;28;20034;-72
2021/03/16 05:09:14;;;;;;;28.02;6.13;;;5.80;99.90;;;;;;4129256;28;20033;-72
2021/03/16 05:11:15;;;;;;;36.90;7.72;;;5.70;99.90;;;;;;4128921;28;20034;-73
2021/03/16 05:13:18;;;;;;;20.92;5.95;;;5.70;99.90;;;;;;4128877;28;20141;-73
2021/03/16 05:15:18;;;;;;;22.98;4.85;;;5.60;99.90;;;;;;4135067;28;20041;-73
2021/03/16 05:17:19;;;;;;;25.83;4.95;;;5.60;99.90;;;;;;4130164;28;20401;-73
2021/03/16 05:19:19;;;;;;;21.95;5.43;;;5.70;99.90;;;;;;4134039;28;20386;-73
2021/03/16 05:21:20;;;;;;;24.48;5.45;;;5.80;99.90;;;;;;4136229;28;20058;-73
2021/03/16 05:23:21;;;;;;;16.33;4.82;;;5.80;99.90;;;;;;4131095;28;20560;-72
2021/03/16 05:25:22;;;;;;;21.90;4.90;;;5.90;99.90;;;;;;4129666;28;20042;-73
2021/03/16 05:27:22;;;;;;;16.42;4.88;;;5.90;99.90;;;;;;4130766;28;20046;-73
2021/03/16 05:29:23;;;;;;;25.77;5.93;;;5.80;99.90;;;;;;4130956;28;20354;-73
2021/03/16 05:31:24;;;;;;;22.35;5.03;;;5.70;99.90;;;;;;4130740;28;20065;-72
2021/03/16 05:33:24;;;;;;;26.35;6.40;;;5.70;99.90;;;;;;4130740;28;20042;-73
2021/03/16 05:35:26;;;;;;;23.02;6.35;;;5.70;99.90;;;;;;4129437;28;20042;-72
2021/03/16 05:37:28;;;;;;;23.00;5.60;;;5.60;99.90;;;;;;4132987;28;20029;-73
2021/03/16 05:39:28;;;;;;;28.45;6.28;;;5.70;99.90;;;;;;4121479;28;20081;-73
2021/03/16 05:41:30;;;;;;;17.95;4.88;;;5.70;99.90;;;;;;4127132;28;20132;-74
2021/03/16 05:43:30;;;;;;;22.08;5.35;;;5.70;99.90;;;;;;4130784;28;20104;-73
2021/03/16 05:45:31;;;;;;;20.00;4.82;;;5.80;99.90;;;;;;4131432;28;20038;-74
2021/03/16 05:47:32;;;;;;;24.88;5.57;;;5.70;99.90;;;;;;4132008;28;20038;-73
2021/03/16 05:49:33;;;;;;;21.80;5.03;;;5.70;99.90;;;;;;4135040;28;20042;-73
2021/03/16 05:51:35;;;;;;;14.35;4.63;;;5.70;99.90;;;;;;4126685;28;20038;-73
2021/03/16 05:53:36;;;;;;;25.02;5.32;;;5.70;99.90;;;;;;4133637;28;20033;-73
2021/03/16 05:55:37;;;;;;;21.83;5.00;;;5.70;99.90;;;;;;4133040;28;20065;-73
2021/03/16 05:57:38;;;;;;;23.58;5.60;;;5.70;99.90;;;;;;4143414;28;20547;-73
2021/03/16 05:59:38;;;;;;;27.92;6.75;;;5.70;99.90;;;;;;4133099;28;20034;-73
2021/03/16 06:01:39;;;;;;;25.55;4.90;;;5.80;99.90;;;;;;4131420;28;20165;-73
2021/03/16 06:03:40;;;;;;;21.20;4.55;;;5.80;99.90;;;;;;4131941;28;20077;-73
2021/03/16 06:05:41;;;;;;;22.52;5.78;;;5.70;99.90;;;;;;4133988;28;20117;-74
2021/03/16 06:07:48;;;;;;;21.83;5.82;;;5.70;99.90;;;;;;4133140;28;20061;-74
2021/03/16 06:09:49;;;;;;;30.92;5.10;;;5.70;99.90;;;;;;4131477;28;20401;-73
2021/03/16 06:11:50;;;;;;;23.05;5.82;;;5.50;99.90;;;;;;4132814;28;20035;-73
2021/03/16 06:13:55;;;;;;;21.48;7.00;;;5.50;99.90;;;;;;4131777;28;20559;-73
2021/03/16 06:15:59;;;;;;;22.63;5.10;;;5.50;99.90;;;;;;4138240;28;20118;-73
2021/03/16 06:17:59;;;;;;;24.13;6.20;;;5.40;99.90;;;;;;4123857;28;20042;-73
2021/03/16 06:20:00;;;;;;;20.67;4.90;;;5.30;99.90;;;;;;4140171;28;20030;-73
2021/03/16 06:22:02;;;;;;;36.42;8.77;;;5.30;99.90;;;;;;4134594;28;20038;-73
2021/03/16 06:24:04;;;;;;;23.58;6.38;;;5.30;99.90;;;;;;4131823;28;20098;-72
2021/03/16 06:26:13;;;;;;;18.63;5.03;;;5.40;99.90;;;;;;4132562;28;20481;-74
2021/03/16 06:28:15;;;;;;;30.33;5.55;;;5.40;99.90;;;;;;4140105;28;20069;-73
2021/03/16 06:30:24;;;;;;;23.40;5.85;;;5.50;99.90;;;;;;4133529;28;20061;-73
2021/03/16 06:32:32;;;;;;;28.65;5.53;;;5.60;99.90;;;;;;4133496;28;20038;-73
2021/03/16 06:34:33;;;;;;;29.23;5.40;;;5.60;99.90;;;;;;4121671;28;20038;-73
2021/03/16 06:36:34;;;;;;;22.02;5.68;;;5.60;99.90;;;;;;4131320;28;20457;-73
2021/03/16 06:38:37;;;;;;;24.30;6.28;;;5.70;99.90;;;;;;4132571;28;21501;-74
2021/03/16 06:40:38;;;;;;;25.55;5.28;;;5.80;99.90;;;;;;4131288;28;20094;-74
2021/03/16 06:42:38;;;;;;;23.05;6.43;;;5.90;99.90;;;;;;4131728;28;20030;-74
2021/03/16 06:44:39;;;;;;;17.80;5.38;;;5.90;99.90;;;;;;4129950;28;20518;-74
2021/03/16 06:46:40;;;;;;;20.52;5.10;;;6.00;99.90;;;;;;4128634;28;20035;-73
2021/03/16 06:48:40;;;;;;;21.42;6.00;;;5.90;99.90;;;;;;4129184;28;20125;-75
2021/03/16 06:50:42;;;;;;;24.88;6.57;;;5.90;99.90;;;;;;4131712;28;20036;-73
2021/03/16 06:52:51;;;;;;;23.98;5.70;;;6.00;99.90;;;;;;4129275;28;20469;-73
2021/03/16 06:54:53;;;;;;;22.55;6.15;;;5.90;99.90;;;;;;4131198;28;20575;-72
2021/03/16 06:56:59;;;;;;;28.88;5.50;;;5.90;99.90;;;;;;4132735;28;20034;-74
2021/03/16 06:59:00;;;;;;;17.42;4.75;;;5.90;99.90;;;;;;4131968;28;20489;-72
2021/03/16 07:01:08;;;;;;;23.45;5.43;;;5.90;99.90;;;;;;4131250;28;20077;-72
2021/03/16 07:03:15;;;;;;;25.45;6.25;;;5.90;99.90;;;;;;4130702;28;20129;-72
2021/03/16 07:05:26;;;;;;;18.92;4.38;;;6.00;99.90;;;;;;4131521;28;20462;-73
2021/03/16 07:07:28;;;;;;;27.10;5.95;;;6.10;99.90;;;;;;4143063;28;20421;-74
2021/03/16 07:09:31;;;;;;;22.52;5.28;;;6.20;99.90;;;;;;4137647;28;20050;-73
2021/03/16 07:11:35;;;;;;;15.52;5.32;;;6.20;99.90;;;;;;4132575;28;20509;-74
2021/03/16 07:13:36;;;;;;;21.38;5.93;;;6.30;99.90;;;;;;4130824;28;20066;-73
2021/03/16 07:15:40;;;;;;;25.63;5.85;;;6.40;99.90;;;;;;4131268;28;20053;-74
2021/03/16 07:17:43;;;;;;;19.95;4.75;;;6.60;99.90;;;;;;4124311;28;20498;-73
2021/03/16 07:19:48;;;;;;;22.42;5.07;;;6.70;99.90;;;;;;4135099;28;20030;-73
2021/03/16 07:21:51;;;;;;;15.80;5.28;;;6.70;99.90;;;;;;4134781;28;20041;-73
2021/03/16 07:23:53;;;;;;;19.50;6.18;;;6.80;99.90;;;;;;4131043;28;20030;-74
2021/03/16 07:25:55;;;;;;;20.70;5.15;;;6.80;99.90;;;;;;4125181;28;20042;-74
2021/03/16 07:27:57;;;;;;;20.58;4.95;;;6.70;99.90;;;;;;4126082;28;20046;-73
2021/03/16 07:29:58;;;;;;;14.40;4.95;;;6.80;99.90;;;;;;4129727;28;20046;-73
2021/03/16 07:32:01;;;;;;;25.38;6.38;;;6.90;99.90;;;;;;4128241;28;20431;-74
2021/03/16 07:34:06;;;;;;;;;;;6.90;99.90;;;;;;4118339;28;20398;-74
2021/03/16 07:36:07;;;;;;;20.33;4.25;;;7.00;99.90;;;;;;4119879;28;19937;-72
2021/03/16 07:38:08;;;;;;;19.88;5.22;;;7.00;99.90;;;;;;4129337;28;20034;-71
2021/03/16 07:40:10;;;;;;;25.83;5.65;;;7.00;99.90;;;;;;4124726;28;20563;-71
2021/03/16 07:42:11;;;;;;;18.23;5.25;;;7.00;99.90;;;;;;4126805;28;20045;-73
2021/03/16 07:44:14;;;;;;;23.98;7.20;;;7.10;99.90;;;;;;4128596;28;20558;-73
2021/03/16 07:46:19;;;;;;;22.58;5.30;;;7.00;99.90;;;;;;4133857;28;20034;-73
2021/03/16 07:48:21;;;;;;;25.88;4.82;;;7.10;99.90;;;;;;4128580;28;20126;-74
2021/03/16 07:50:30;;;;;;;17.95;5.72;;;7.00;99.90;;;;;;4127608;28;20501;-74
2021/03/16 07:52:31;;;;;;;13.85;5.53;;;7.00;99.90;;;;;;4126019;28;20029;-74
2021/03/16 07:54:37;;;;;;;20.50;4.85;;;7.00;99.90;;;;;;4131490;28;20039;-74
2021/03/16 07:56:40;;;;;;;19.15;5.80;;;7.00;99.90;;;;;;4131571;28;20129;-74
2021/03/16 07:58:45;;;;;;;21.40;5.18;;;7.00;99.90;;;;;;4131850;28;20096;-74
2021/03/16 08:00:46;;;;;;;22.63;6.50;;;7.10;99.90;;;;;;4127495;28;20047;-72
2021/03/16 08:02:57;;;;;;;20.08;5.85;;;7.10;99.90;;;;;;4130366;28;20389;-72
2021/03/16 08:04:58;;;;;;;24.70;7.13;;;7.20;99.90;;;;;;4129356;28;20038;-73
2021/03/16 08:07:00;;;;;;;26.25;7.13;;;7.20;99.90;;;;;;4129139;28;20456;-73
2021/03/16 08:09:01;;;;;;;18.75;5.03;;;7.40;99.90;;;;;;4134415;28;20030;-73
2021/03/16 08:11:12;;;;;;;15.75;5.90;;;7.50;99.90;;;;;;4129701;28;20561;-73
2021/03/16 08:13:17;;;;;;;13.45;4.60;;;7.60;99.90;;;;;;4130010;28;20120;-73
2021/03/16 08:15:18;;;;;;;24.75;6.25;;;7.50;99.90;;;;;;4119723;28;20031;-73
2021/03/16 08:17:32;;;;;;;22.48;6.13;;;7.50;99.90;;;;;;4125299;28;20035;-73
2021/03/16 08:19:40;;;;;;;20.17;4.75;;;7.60;99.90;;;;;;4129871;28;20033;-73
2021/03/16 08:21:43;;;;;;;18.55;5.60;;;7.60;99.90;;;;;;4134915;28;20065;-73
2021/03/16 08:23:43;;;;;;;18.17;6.20;;;7.60;99.90;;;;;;4130134;28;20038;-73
2021/03/16 08:25:47;;;;;;;20.05;4.70;;;7.60;99.90;;;;;;4124944;28;20053;-74
2021/03/16 08:27:50;;;;;;;17.25;4.75;;;7.60;99.90;;;;;;4126748;28;20066;-73
2021/03/16 08:29:50;;;;;;;22.58;5.57;;;7.50;99.90;;;;;;4127545;28;20073;-73
2021/03/16 08:31:53;;;;;;;21.23;5.22;;;7.60;99.90;;;;;;4130442;28;20034;-73
2021/03/16 08:33:53;;;;;;;22.08;5.13;;;7.70;99.90;;;;;;4140758;28;20385;-74
2021/03/16 08:35:56;;;;;;;14.70;5.30;;;7.80;99.90;;;;;;4131078;28;20100;-73
2021/03/16 08:37:56;;;;;;;17.27;4.72;;;7.80;99.90;;;;;;4127517;28;20497;-73
2021/03/16 08:39:57;;;;;;;18.80;5.05;;;7.90;99.90;;;;;;4130876;28;20065;-74
2021/03/16 08:42:03;;;;;;;14.43;4.72;;;8.10;99.90;;;;;;4131688;28;20034;-74
2021/03/16 08:44:04;;;;;;;14.32;5.55;;;8.20;99.90;;;;;;4132245;28;20130;-72
2021/03/16 08:46:05;;;;;;;16.38;5.75;;;8.20;99.90;;;;;;4132840;28;20493;-72
2021/03/16 08:48:06;;;;;;;14.18;4.10;;;8.10;99.90;;;;;;4126092;28;20033;-72
2021/03/16 08:50:07;;;;;;;19.20;6.70;;;8.20;99.90;;;;;;4125058;28;20042;-73
2021/03/16 08:52:22;;;;;;;27.08;5.60;;;8.20;99.90;;;;;;4129602;28;20046;-73
2021/03/16 08:54:28;;;;;;;18.25;6.43;;;8.20;99.90;;;;;;4143540;28;20401;-72
2021/03/16 08:56:28;;;;;;;21.42;6.68;;;8.20;99.90;;;;;;4132895;28;20038;-73
2021/03/16 08:58:29;;;;;;;19.92;4.95;;;8.20;99.90;;;;;;4126946;28;20077;-73
2021/03/16 09:00:30;;;;;;;22.40;5.00;;;8.20;99.90;;;;;;4127034;28;20389;-73
2021/03/16 09:02:36;;;;;;;20.05;4.90;;;8.40;99.90;;;;;;4124034;28;20034;-73
2021/03/16 09:04:37;;;;;;;25.40;5.75;;;8.50;99.90;;;;;;4127354;28;20085;-74
2021/03/16 09:06:38;;;;;;;11.38;3.90;;;8.70;99.90;;;;;;4135914;28;20030;-73
2021/03/16 09:08:42;;;;;;;25.38;5.03;;;8.90;99.90;;;;;;4139215;28;20038;-73
2021/03/16 09:10:42;;;;;;;;;;;8.90;99.90;;;;;;4132357;28;20048;-74
2021/03/16 09:12:45;;;;;;;16.15;4.38;;;9.00;99.90;;;;;;4126363;28;19969;-73
2021/03/16 09:14:45;;;;;;;17.30;6.10;;;9.00;99.90;;;;;;4129564;28;20551;-73
2021/03/16 09:16:51;;;;;;;16.20;5.40;;;9.20;99.90;;;;;;4124997;28;20047;-74
2021/03/16 09:18:52;;;;;;;20.85;5.28;;;9.20;99.90;;;;;;4126807;28;20542;-74
2021/03/16 09:20:53;;;;;;;15.73;4.85;;;9.40;99.90;;;;;;4129214;28;20112;-74
2021/03/16 09:23:11;;;;;;;16.20;5.05;;;9.30;99.90;;;;;;4122337;28;20492;-73
2021/03/16 09:25:13;;;;;;;16.70;4.43;;;9.40;99.90;;;;;;4133299;28;20026;-74
2021/03/16 09:27:14;;;;;;;16.45;5.75;;;9.50;99.90;;;;;;4131859;28;20513;-74
2021/03/16 09:29:15;;;;;;;12.48;4.25;;;9.50;99.90;;;;;;4132064;28;20026;-74
2021/03/16 09:31:18;;;;;;;10.82;3.92;;;9.50;99.90;;;;;;4133980;28;20396;-74
2021/03/16 09:33:21;;;;;;;15.40;4.07;;;9.50;99.90;;;;;;4138841;28;20033;-74
2021/03/16 09:35:23;;;;;;;12.70;3.72;;;9.50;99.90;;;;;;4130122;28;20474;-74
2021/03/16 09:37:23;;;;;;;20.92;5.70;;;9.60;99.90;;;;;;4131282;28;20041;-74
2021/03/16 09:39:24;;;;;;;16.73;4.03;;;9.80;99.90;;;;;;4132342;28;20038;-74
2021/03/16 09:41:26;;;;;;;18.52;4.90;;;9.80;99.90;;;;;;4136481;28;20513;-74
2021/03/16 09:43:31;;;;;;;15.32;4.85;;;10.00;99.90;;;;;;4139527;28;20116;-74
2021/03/16 09:45:32;;;;;;;13.52;3.33;;;10.00;99.90;;;;;;4131510;28;20464;-74
2021/03/16 09:47:33;;;;;;;12.00;3.75;;;10.00;99.90;;;;;;4130699;28;20038;-74
2021/03/16 09:49:39;;;;;;;12.35;4.45;;;10.00;99.90;;;;;;4131699;28;20034;-74
2021/03/16 09:51:44;;;;;;;12.25;3.25;;;9.80;99.90;;;;;;4130412;28;20069;-74
2021/03/16 09:54:05;;;;;;;14.55;4.50;;;9.70;99.90;;;;;;4122683;28;20033;-73
2021/03/16 09:56:07;;;;;;;14.82;5.28;;;9.80;99.90;;;;;;4124873;28;20034;-74
2021/03/16 09:58:18;;;;;;;10.60;4.38;;;9.70;99.90;;;;;;4130836;28;20046;-74
2021/03/16 10:00:24;;;;;;;15.32;3.65;;;9.90;99.90;;;;;;4134736;28;20049;-74
2021/03/16 10:02:32;;;;;;;10.98;4.00;;;10.00;99.90;;;;;;4129749;28;20034;-74
2021/03/16 10:04:50;;;;;;;15.07;4.57;;;10.20;99.90;;;;;;4123308;28;20580;-74
2021/03/16 10:06:56;;;;;;;11.98;5.15;;;10.20;99.90;;;;;;4143554;28;20066;-74
2021/03/16 10:08:57;;;;;;;9.70;3.47;;;10.40;99.90;;;;;;4131878;28;20117;-74
2021/03/16 10:10:58;;;;;;;12.13;4.38;;;10.60;99.90;;;;;;4132030;28;20088;-73
2021/03/16 10:13:02;;;;;;;10.80;3.55;;;10.80;99.90;;;;;;4131849;28;20027;-73
2021/03/16 10:15:05;;;;;;;17.52;3.72;;;10.80;99.90;;;;;;4127064;28;20121;-74
2021/03/16 10:17:05;;;;;;;17.58;5.32;;;10.80;99.90;;;;;;4132771;28;20066;-75
2021/03/16 10:19:06;;;;;;;12.98;4.32;;;10.80;99.90;;;;;;4133419;28;20061;-73
2021/03/16 10:21:06;;;;;;;21.25;4.80;;;10.70;99.90;;;;;;4139099;28;20027;-74
2021/03/16 10:23:10;;;;;;;39.95;6.78;;;10.70;99.90;;;;;;4131810;28;20054;-74
2021/03/16 10:25:11;;;;;;;10.32;3.00;;;10.80;99.90;;;;;;4131752;28;20023;-74
2021/03/16 10:27:24;;;;;;;20.10;3.90;;;11.00;99.90;;;;;;4136137;28;20350;-74
2021/03/16 10:29:25;;;;;;;10.63;3.08;;;11.00;99.90;;;;;;4130601;28;20034;-74
2021/03/16 10:31:25;;;;;;;9.88;3.35;;;10.90;99.90;;;;;;4132301;28;20055;-74
2021/03/16 10:33:26;;;;;;;10.30;3.42;;;10.90;99.90;;;;;;4138980;28;20507;-74
2021/03/16 10:35:27;;;;;;;7.75;3.13;;;11.10;99.90;;;;;;4131175;28;20036;-74
2021/03/16 10:37:28;;;;;;;19.70;4.43;;;11.30;99.90;;;;;;4137798;28;20050;-74
2021/03/16 10:39:29;;;;;;;10.75;3.47;;;11.30;99.90;;;;;;4138376;28;20384;-74